Time;durP1;ratioP1;P1;durP2;ratioP2;P2;SDS_P1;SDS_P2;PMS_P1;PMS_P2;Temp;Humidity;BMP_temperature;BMP_pressure;BME280_temperature;BME280_humidity;BME280_pressure;Samples;Min_cycle;Max_cycle;Signal;HPM_P1;HPM_P2
2022/07/31 00:00:49;;;;;;;0.50;0.40;;;;;;;22.41;100.00;95183.56;5074789;28;20867;-57
2022/07/31 00:03:18;;;;;;;0.50;0.40;;;;;;;22.66;100.00;95185.00;5075191;28;20474;-58
2022/07/31 00:05:46;;;;;;;0.80;0.70;;;;;;;22.70;100.00;95177.75;5075100;28;20442;-58
2022/07/31 00:08:15;;;;;;;1.37;0.77;;;;;;;22.72;100.00;95170.88;5075001;28;20469;-58
2022/07/31 00:10:43;;;;;;;0.60;0.30;;;;;;;22.79;100.00;95180.28;5075043;28;20470;-58
2022/07/31 00:13:13;;;;;;;2.53;0.70;;;;;;;22.38;100.00;95179.63;5074702;28;20414;-57
2022/07/31 00:15:42;;;;;;;0.40;0.30;;;;;;;22.43;100.00;95186.69;5074624;28;20488;-57
2022/07/31 00:18:11;;;;;;;0.40;0.20;;;;;;;22.43;100.00;95184.78;5074706;28;20552;-58
2022/07/31 00:20:39;;;;;;;0.50;0.30;;;;;;;22.23;100.00;95188.50;5074607;28;20533;-58
2022/07/31 00:23:08;;;;;;;0.50;0.40;;;;;;;21.65;100.00;95191.84;5074794;28;20487;-58
2022/07/31 00:25:38;;;;;;;1.03;0.50;;;;;;;21.63;100.00;95196.81;5074724;28;20456;-58
2022/07/31 00:28:07;;;;;;;1.03;1.03;;;;;;;20.87;100.00;95194.88;5074369;28;20521;-58
2022/07/31 00:30:35;;;;;;;0.60;0.50;;;;;;;21.13;100.00;95198.00;5074784;28;20495;-58
2022/07/31 00:33:05;;;;;;;0.70;0.63;;;;;;;20.97;100.00;95189.03;5074654;28;20905;-58
2022/07/31 00:35:34;;;;;;;0.50;0.50;;;;;;;20.70;100.00;95197.75;5074345;28;20524;-58
2022/07/31 00:38:02;;;;;;;0.67;0.40;;;;;;;20.63;100.00;95173.28;5074559;28;20531;-58
2022/07/31 00:40:51;;;;;;;0.77;0.50;;;;;;;20.25;100.00;95187.03;5074129;28;20444;-59
2022/07/31 00:43:19;;;;;;;0.80;0.80;;;;;;;20.08;100.00;95190.66;5073945;28;20464;-59
2022/07/31 00:45:48;;;;;;;0.70;0.60;;;;;;;20.16;100.00;95183.63;5073675;28;20460;-59
2022/07/31 00:48:27;;;;;;;0.50;0.33;;;;;;;20.27;100.00;95185.56;5074016;28;20519;-59
2022/07/31 00:50:56;;;;;;;0.50;0.40;;;;;;;20.35;100.00;95186.59;5074109;28;20441;-59
2022/07/31 00:53:25;;;;;;;0.50;0.40;;;;;;;20.05;100.00;95177.06;5073925;28;20593;-59
2022/07/31 00:55:53;;;;;;;1.63;0.90;;;;;;;20.05;100.00;95169.00;5073893;28;20922;-59
2022/07/31 00:58:22;;;;;;;0.63;0.33;;;;;;;20.68;100.00;95176.56;5073758;28;20464;-59
2022/07/31 01:00:50;;;;;;;0.60;0.60;;;;;;;20.54;100.00;95170.69;5073742;28;20457;-59
2022/07/31 01:03:19;;;;;;;0.60;0.50;;;;;;;20.40;100.00;95164.06;5073625;28;20461;-59
2022/07/31 01:05:48;;;;;;;0.47;0.40;;;;;;;20.82;100.00;95165.47;5073984;28;20929;-60
2022/07/31 01:08:17;;;;;;;1.40;1.23;;;;;;;20.54;100.00;95172.63;5073895;28;20464;-59
2022/07/31 01:10:54;;;;;;;0.50;0.50;;;;;;;20.22;100.00;95169.63;5073903;28;20508;-59
2022/07/31 01:13:31;;;;;;;0.67;0.60;;;;;;;20.27;100.00;95172.13;5073797;28;20858;-59
2022/07/31 01:16:01;;;;;;;0.50;0.40;;;;;;;20.92;100.00;95156.91;5073706;28;20486;-59
2022/07/31 01:18:33;;;;;;;0.50;0.30;;;;;;;21.25;100.00;95156.78;5073377;28;20504;-59
2022/07/31 01:21:06;;;;;;;0.40;0.30;;;;;;;21.55;100.00;95146.47;5072477;28;20491;-59
2022/07/31 01:23:57;;;;;;;0.40;0.30;;;;;;;21.63;100.00;95140.94;5073059;28;20512;-59
2022/07/31 01:26:38;;;;;;;0.50;0.30;;;;;;;21.49;100.00;95113.56;5073279;28;20464;-59
2022/07/31 01:29:21;;;;;;;0.40;0.23;;;;;;;21.89;100.00;95151.31;5073487;28;20882;-59
2022/07/31 01:31:55;;;;;;;0.40;0.30;;;;;;;21.89;100.00;95152.09;5073421;28;20504;-58
2022/07/31 01:34:32;;;;;;;0.40;0.30;;;;;;;21.55;100.00;95149.19;5073299;28;20454;-58
2022/07/31 01:37:09;;;;;;;0.60;0.40;;;;;;;21.18;100.00;95143.09;5072351;28;20453;-59
2022/07/31 01:39:43;;;;;;;1.23;0.53;;;;;;;20.85;100.00;95094.72;5073201;28;20436;-58
2022/07/31 01:42:14;;;;;;;5.77;1.27;;;;;;;21.28;100.00;95151.50;5073327;28;20570;-58
2022/07/31 01:44:48;;;;;;;0.40;0.30;;;;;;;21.28;100.00;95145.31;5072969;28;20460;-58
2022/07/31 01:47:19;;;;;;;1.90;0.67;;;;;;;21.51;100.00;95141.75;5072562;28;20516;-58
2022/07/31 01:49:50;;;;;;;0.60;0.50;;;;;;;21.57;100.00;95136.91;5073184;28;20520;-59
2022/07/31 01:52:20;;;;;;;0.40;0.30;;;;;;;20.71;100.00;95073.53;5072778;28;20425;-59
2022/07/31 01:54:50;;;;;;;0.80;0.80;;;;;;;21.39;100.00;95131.03;5072646;28;20456;-60
2022/07/31 01:57:20;;;;;;;0.40;0.20;;;;;;;21.55;100.00;95131.09;5073082;28;20497;-59
2022/07/31 01:59:51;;;;;;;2.73;0.63;;;;;;;21.66;100.00;95131.38;5072559;28;20505;-60
2022/07/31 02:02:22;;;;;;;0.40;0.30;;;;;;;21.75;100.00;95132.81;5072566;28;20465;-59
2022/07/31 02:04:52;;;;;;;0.50;0.40;;;;;;;21.83;100.00;95134.53;5072829;28;20508;-58
2022/07/31 02:07:21;;;;;;;0.50;0.40;;;;;;;21.84;100.00;95130.72;5072446;28;20940;-58
2022/07/31 02:09:50;;;;;;;0.40;0.20;;;;;;;21.89;100.00;95127.81;5072779;28;20500;-59
2022/07/31 02:12:27;;;;;;;0.40;0.30;;;;;;;21.88;100.00;95128.94;5072384;28;20437;-59
2022/07/31 02:15:04;;;;;;;0.40;0.40;;;;;;;21.80;100.00;95119.06;5072648;28;20432;-59
2022/07/31 02:17:33;;;;;;;0.40;0.30;;;;;;;21.89;100.00;95124.31;5072361;28;20480;-59
2022/07/31 02:20:04;;;;;;;0.70;0.50;;;;;;;21.96;100.00;95121.84;5072591;28;20433;-59
2022/07/31 02:22:33;;;;;;;0.40;0.20;;;;;;;21.93;100.00;95122.53;5072213;28;20989;-59
2022/07/31 02:25:02;;;;;;;0.60;0.40;;;;;;;21.95;100.00;95117.56;5072529;28;20417;-59
2022/07/31 02:27:31;;;;;;;0.50;0.30;;;;;;;21.92;100.00;95120.94;5072118;28;20504;-60
2022/07/31 02:30:22;;;;;;;0.60;0.60;;;;;;;21.87;100.00;95113.09;5072069;28;20956;-59
2022/07/31 02:32:52;;;;;;;0.40;0.20;;;;;;;21.76;100.00;95112.78;5071973;28;20765;-59
2022/07/31 02:35:22;;;;;;;0.50;0.33;;;;;;;21.71;100.00;95120.31;5071792;28;20464;-59
2022/07/31 02:37:52;;;;;;;0.40;0.30;;;;;;;21.60;100.00;95093.09;5072090;28;20449;-59
2022/07/31 02:40:21;;;;;;;0.40;0.30;;;;;;;21.77;100.00;95119.75;5072400;28;20496;-59
2022/07/31 02:42:50;;;;;;;0.60;0.53;;;;;;;21.75;100.00;95113.13;5071961;28;20500;-59
2022/07/31 02:45:19;;;;;;;0.40;0.30;;;;;;;21.72;100.00;95122.69;5071998;28;20873;-59
2022/07/31 02:47:49;;;;;;;0.50;0.30;;;;;;;21.77;100.00;95119.75;5072309;28;20418;-59
2022/07/31 02:50:18;;;;;;;0.40;0.30;;;;;;;21.73;100.00;95121.56;5072021;28;20429;-59
2022/07/31 02:52:48;;;;;;;0.50;0.30;;;;;;;21.05;100.00;95128.81;5072259;28;20512;-59
2022/07/31 02:55:17;;;;;;;0.70;0.60;;;;;;;21.44;100.00;95130.00;5072190;28;20956;-59
2022/07/31 02:57:47;;;;;;;1.10;0.77;;;;;;;21.55;100.00;95130.31;5072223;28;20841;-59
2022/07/31 03:00:21;;;;;;;0.40;0.30;;;;;;;21.65;100.00;95127.91;5072159;28;20464;-59
2022/07/31 03:02:52;;;;;;;0.60;0.50;;;;;;;21.67;100.00;95127.56;5071761;28;20468;-59
2022/07/31 03:05:21;;;;;;;0.40;0.20;;;;;;;21.58;100.00;95125.00;5072092;28;20479;-59
2022/07/31 03:07:49;;;;;;;0.40;0.30;;;;;;;21.56;100.00;95127.25;5071237;28;20461;-59
2022/07/31 03:10:18;;;;;;;0.40;0.20;;;;;;;21.49;100.00;95119.75;5071717;28;20866;-59
2022/07/31 03:12:50;;;;;;;0.40;0.30;;;;;;;21.56;100.00;95118.38;5071826;28;20949;-59
2022/07/31 03:15:23;;;;;;;0.77;0.33;;;;;;;21.45;100.00;95123.50;5071482;28;20436;-60
2022/07/31 03:17:53;;;;;;;0.50;0.30;;;;;;;20.88;100.00;95127.16;5070632;28;20564;-59
2022/07/31 03:20:23;;;;;;;0.50;0.30;;;;;;;21.26;100.00;95132.19;5071545;28;20457;-60
2022/07/31 03:22:51;;;;;;;0.40;0.20;;;;;;;21.41;100.00;95126.06;5071233;28;20461;-59
2022/07/31 03:25:20;;;;;;;0.40;0.27;;;;;;;21.52;100.00;95129.88;5071476;28;20512;-56
2022/07/31 03:27:50;;;;;;;0.60;0.40;;;;;;;21.65;100.00;95127.13;5071161;28;20421;-57
2022/07/31 03:30:24;;;;;;;0.60;0.43;;;;;;;21.69;100.00;95125.28;5071761;28;20932;-57
2022/07/31 03:32:55;;;;;;;0.83;0.77;;;;;;;20.63;100.00;95132.91;5071850;28;20433;-58
2022/07/31 03:35:25;;;;;;;0.40;0.30;;;;;;;21.27;100.00;95133.75;5071225;28;20486;-58
2022/07/31 03:37:54;;;;;;;0.70;0.70;;;;;;;20.47;100.00;95134.66;5071147;28;20426;-58
2022/07/31 03:40:22;;;;;;;0.40;0.30;;;;;;;20.94;100.00;95135.00;5071558;28;20502;-57
2022/07/31 03:42:52;;;;;;;0.80;0.40;;;;;;;21.40;100.00;95135.28;5071044;28;21050;-58
2022/07/31 03:45:21;;;;;;;0.40;0.30;;;;;;;21.50;100.00;95137.50;5072792;28;20523;-58
2022/07/31 03:47:50;;;;;;;0.40;0.27;;;;;;;21.51;100.00;95132.88;5075485;28;20452;-58
2022/07/31 03:50:21;;;;;;;0.50;0.30;;;;;;;21.78;100.00;95136.72;5075050;28;20516;-58
2022/07/31 03:52:50;;;;;;;0.73;0.73;;;;;;;21.53;100.00;95072.09;5074730;28;20482;-58
2022/07/31 03:55:19;;;;;;;0.40;0.30;;;;;;;21.90;100.00;95140.19;5075003;28;20886;-58
2022/07/31 03:57:48;;;;;;;0.60;0.50;;;;;;;21.90;100.00;95140.19;5074430;28;20872;-58
2022/07/31 04:00:19;;;;;;;0.40;0.30;;;;;;;21.92;100.00;95129.81;5074619;28;20429;-58
2022/07/31 04:02:47;;;;;;;0.60;0.30;;;;;;;22.03;100.00;95138.22;5075039;28;20429;-59
2022/07/31 04:05:16;;;;;;;0.60;0.50;;;;;;;22.05;100.00;95133.25;5074353;28;20444;-59
2022/07/31 04:07:46;;;;;;;0.40;0.30;;;;;;;22.15;100.00;95130.03;5074556;28;20414;-59
2022/07/31 04:10:14;;;;;;;0.60;0.40;;;;;;;21.33;100.00;95115.41;5074665;28;20512;-58
2022/07/31 04:12:43;;;;;;;0.47;0.37;;;;;;;21.95;100.00;95129.16;5074674;28;20462;-59
2022/07/31 04:15:11;;;;;;;0.63;0.50;;;;;;;21.96;100.00;95114.50;5074233;28;20795;-58
2022/07/31 04:17:39;;;;;;;0.50;0.30;;;;;;;22.09;100.00;95118.72;5074171;28;20512;-59
2022/07/31 04:20:10;;;;;;;3.73;0.33;;;;;;;22.23;100.00;95115.59;5074213;28;20461;-59
2022/07/31 04:22:38;;;;;;;0.40;0.30;;;;;;;21.89;100.00;95044.16;5074538;28;20468;-59
2022/07/31 04:25:09;;;;;;;0.50;0.40;;;;;;;22.39;100.00;95100.16;5073999;28;21004;-59
2022/07/31 04:27:38;;;;;;;0.50;0.30;;;;;;;22.23;100.00;95067.00;5074173;28;20981;-59
2022/07/31 04:30:15;;;;;;;0.40;0.30;;;;;;;22.49;100.00;95102.34;5074099;28;20460;-59
2022/07/31 04:32:44;;;;;;;0.40;0.20;;;;;;;22.53;100.00;95103.22;5073758;28;20468;-59
2022/07/31 04:35:13;;;;;;;0.40;0.30;;;;;;;22.01;100.00;95110.78;5073924;28;20486;-60
2022/07/31 04:37:41;;;;;;;0.50;0.30;;;;;;;22.31;100.00;95111.94;5073965;28;20429;-59
2022/07/31 04:40:17;;;;;;;0.40;0.30;;;;;;;22.45;100.00;95109.59;5074222;28;20437;-59
2022/07/31 04:42:45;;;;;;;0.50;0.40;;;;;;;22.45;100.00;95106.09;5073903;28;20508;-59
2022/07/31 04:45:13;;;;;;;0.43;0.33;;;;;;;22.25;100.00;95110.63;5074005;28;20547;-59
2022/07/31 04:47:42;;;;;;;0.70;0.40;;;;;;;22.46;100.00;95119.28;5074112;28;20452;-60
2022/07/31 04:50:10;;;;;;;0.40;0.20;;;;;;;22.60;100.00;95110.69;5074093;28;20453;-58
2022/07/31 04:52:39;;;;;;;0.40;0.30;;;;;;;22.47;100.00;95107.31;5073568;28;20413;-58
2022/07/31 04:55:08;;;;;;;0.57;0.57;;;;;;;22.51;100.00;95094.69;5073562;28;20528;-58
2022/07/31 04:57:38;;;;;;;0.47;0.30;;;;;;;22.71;100.00;95103.69;5071904;28;20517;-57
2022/07/31 05:00:08;;;;;;;4.63;1.07;;;;;;;22.79;100.00;95104.63;5073588;28;20521;-58
2022/07/31 05:02:36;;;;;;;0.57;0.57;;;;;;;23.00;100.00;95107.78;5073627;28;20522;-58
2022/07/31 05:05:06;;;;;;;0.50;0.30;;;;;;;23.00;100.00;95111.28;5073691;28;20556;-57
2022/07/31 05:07:34;;;;;;;0.60;0.40;;;;;;;22.93;100.00;95116.53;5073587;28;20464;-57
2022/07/31 05:10:03;;;;;;;0.70;0.40;;;;;;;23.08;100.00;95115.72;5073327;28;20437;-57
2022/07/31 05:12:31;;;;;;;0.60;0.50;;;;;;;22.82;100.00;95115.50;5072927;28;20954;-58
2022/07/31 05:15:01;;;;;;;0.53;0.53;;;;;;;23.03;100.00;95107.09;5073164;28;20520;-58
2022/07/31 05:17:30;;;;;;;0.50;0.30;;;;;;;22.99;100.00;95095.44;5073190;28;20625;-58
2022/07/31 05:19:58;;;;;;;0.50;0.30;;;;;;;23.17;100.00;95094.66;5073127;28;20433;-58
2022/07/31 05:22:26;;;;;;;0.70;0.60;;;;;;;23.32;100.00;95101.97;5072978;28;20433;-58
2022/07/31 05:24:55;;;;;;;0.60;0.50;;;;;;;22.97;100.00;95071.44;5073046;28;20461;-58
2022/07/31 05:27:23;;;;;;;1.90;0.47;;;;;;;23.38;100.00;95091.66;5072343;28;20425;-59
2022/07/31 05:29:56;;;;;;;0.50;0.30;;;;;;;23.59;100.00;95091.28;5072716;28;20440;-58
2022/07/31 05:32:26;;;;;;;0.40;0.30;;;;;;;23.34;100.00;95055.63;5072755;28;21012;-59
2022/07/31 05:34:54;;;;;;;0.50;0.37;;;;;;;23.63;100.00;95090.22;5072829;28;20472;-59
2022/07/31 05:37:24;;;;;;;1.10;0.40;;;;;;;23.69;100.00;95088.81;5072997;28;20421;-59
2022/07/31 05:39:53;;;;;;;0.60;0.50;;;;;;;23.78;100.00;95097.47;5072492;28;20520;-59
2022/07/31 05:42:21;;;;;;;0.73;0.73;;;;;;;22.86;100.00;95100.16;5072437;28;20414;-59
2022/07/31 05:44:50;;;;;;;0.50;0.47;;;;;;;22.40;100.00;95095.56;5072403;28;20650;-59
2022/07/31 05:47:18;;;;;;;0.70;0.70;;;;;;;22.33;100.00;95098.09;5072303;28;20513;-59
2022/07/31 05:49:48;;;;;;;0.47;0.33;;;;;;;22.74;100.00;95103.75;5072610;28;20457;-60
2022/07/31 05:52:17;;;;;;;0.90;0.60;;;;;;;23.13;100.00;95091.09;5072076;28;20516;-59
2022/07/31 05:54:46;;;;;;;0.90;0.50;;;;;;;23.17;100.00;95086.53;5072156;28;20851;-60
2022/07/31 05:57:14;;;;;;;2.40;0.80;;;;;;;23.25;100.00;95092.91;5072598;28;20500;-61
2022/07/31 06:00:01;;;;;;;0.40;0.30;;;;;;;23.67;100.00;95096.50;5072462;28;20767;-61
2022/07/31 06:02:31;;;;;;;0.70;0.63;;;;;;;23.00;100.00;95094.28;5072378;28;20426;-61
2022/07/31 06:05:01;;;;;;;0.70;0.60;;;;;;;22.83;100.00;95100.88;5072163;28;20557;-56
2022/07/31 06:07:29;;;;;;;1.03;1.03;;;;;;;22.62;100.00;95095.75;5072228;28;20493;-59
2022/07/31 06:09:58;;;;;;;0.60;0.47;;;;;;;23.15;100.00;95090.75;5072120;28;20524;-62
2022/07/31 06:12:26;;;;;;;1.10;0.80;;;;;;;23.23;100.00;95087.06;5072309;28;20500;-61
2022/07/31 06:14:55;;;;;;;0.57;0.47;;;;;;;24.17;100.00;95094.72;5071979;28;20484;-60
2022/07/31 06:17:23;;;;;;;0.70;0.70;;;;;;;23.92;100.00;95084.22;5071649;28;20523;-60
2022/07/31 06:20:10;;;;;;;0.70;0.60;;;;;;;23.84;100.00;95084.44;5072160;28;20429;-62
2022/07/31 06:22:39;;;;;;;1.17;1.17;;;;;;;23.86;100.00;95049.66;5071983;28;20961;-61
2022/07/31 06:25:08;;;;;;;1.70;0.60;;;;;;;24.85;100.00;95084.66;5071861;28;21059;-63
2022/07/31 06:27:40;;;;;;;1.03;1.03;;;;;;;24.68;100.00;95085.13;5072342;28;20478;-61
2022/07/31 06:30:10;;;;;;;0.40;0.30;;;;;;;24.73;100.00;95048.81;5071221;28;20972;-62
2022/07/31 06:32:39;;;;;;;0.63;0.63;;;;;;;25.32;100.00;95083.34;5071507;28;20504;-61
2022/07/31 06:35:10;;;;;;;0.80;0.80;;;;;;;25.22;100.00;95077.41;5070713;28;20429;-60
2022/07/31 06:37:38;;;;;;;0.70;0.53;;;;;;;24.52;100.00;95058.19;5069414;28;20425;-62
2022/07/31 06:40:07;;;;;;;0.50;0.50;;;;;;;25.29;100.00;95071.31;5070018;28;20571;-61
2022/07/31 06:42:37;;;;;;;6.23;1.10;;;;;;;25.52;100.00;95046.81;5070068;28;20425;-60
2022/07/31 06:45:06;;;;;;;0.50;0.40;;;;;;;25.50;100.00;95068.88;5069728;28;21000;-61
2022/07/31 06:47:34;;;;;;;4.93;2.00;;;;;;;25.85;100.00;95072.00;5069882;28;20521;-62
2022/07/31 06:50:03;;;;;;;0.60;0.60;;;;;;;25.65;100.00;95069.84;5069593;28;20512;-62
2022/07/31 06:52:33;;;;;;;0.93;0.63;;;;;;;25.42;100.00;95063.72;5070993;28;20465;-64
2022/07/31 06:55:02;;;;;;;1.30;0.87;;;;;;;25.93;100.00;95056.56;5071292;28;20901;-66
2022/07/31 06:57:30;;;;;;;1.53;1.43;;;;;;;26.03;100.00;95049.69;5071857;28;20444;-65
2022/07/31 06:59:59;;;;;;;0.90;0.73;;;;;;;26.05;100.00;95058.22;5071605;28;20859;-65
2022/07/31 07:02:33;;;;;;;0.60;0.40;;;;;;;26.53;100.00;95050.91;5070788;28;20491;-66
2022/07/31 07:05:02;;;;;;;0.73;0.70;;;;;;;26.94;100.00;95049.69;5070664;28;20497;-66
2022/07/31 07:07:37;;;;;;;1.50;0.60;;;;;;;27.49;100.00;95051.16;5070913;28;20505;-66
2022/07/31 07:10:06;;;;;;;0.50;0.40;;;;;;;27.49;100.00;95045.69;5070901;28;20422;-66
2022/07/31 07:12:34;;;;;;;0.70;0.70;;;;;;;27.39;100.00;95054.59;5071009;28;20784;-66
2022/07/31 07:15:03;;;;;;;0.60;0.60;;;;;;;27.73;100.00;95048.91;5070772;28;20520;-66
2022/07/31 07:17:31;;;;;;;0.53;0.40;;;;;;;28.38;96.53;95043.19;5070432;28;21094;-65
2022/07/31 07:19:59;;;;;;;0.57;0.57;;;;;;;27.85;93.70;95013.13;5072037;28;20512;-65
2022/07/31 07:22:28;;;;;;;0.60;0.60;;;;;;;27.27;100.00;95043.25;5075389;28;20524;-63
2022/07/31 07:25:00;;;;;;;0.70;0.70;;;;;;;28.36;100.00;95040.84;5074638;28;20461;-63
2022/07/31 07:27:29;;;;;;;0.40;0.40;;;;;;;28.82;95.00;95038.09;5074512;28;20457;-62
2022/07/31 07:29:59;;;;;;;0.70;0.60;;;;;;;28.71;99.33;95032.69;5074546;28;20865;-62
2022/07/31 07:32:27;;;;;;;0.70;0.70;;;;;;;28.01;92.83;95040.78;5074389;28;20881;-61
2022/07/31 07:34:55;;;;;;;0.80;0.80;;;;;;;28.12;94.76;95045.13;5074679;28;20496;-61
2022/07/31 07:37:28;;;;;;;0.60;0.60;;;;;;;28.43;97.79;94991.78;5074615;28;20441;-62
2022/07/31 07:40:00;;;;;;;1.47;1.30;;;;;;;28.73;88.60;95024.09;5074330;28;20509;-61
2022/07/31 07:42:31;;;;;;;7.50;3.50;;;;;;;28.83;85.92;95036.94;5074475;28;20447;-61
2022/07/31 07:45:00;;;;;;;1.80;0.90;;;;;;;28.91;85.21;95033.03;5074158;28;20527;-60
2022/07/31 07:47:33;;;;;;;0.67;0.50;;;;;;;29.28;85.26;94994.34;5074139;28;20417;-60
2022/07/31 07:50:22;;;;;;;0.50;0.47;;;;;;;28.96;92.32;95029.91;5074000;28;20432;-61
2022/07/31 07:52:56;;;;;;;0.50;0.40;;;;;;;30.22;82.01;95027.03;5073896;28;20422;-61
2022/07/31 07:55:26;;;;;;;0.40;0.30;;;;;;;30.31;84.81;95019.16;5074168;28;20421;-61
2022/07/31 07:58:04;;;;;;;0.50;0.50;;;;;;;29.92;74.01;95022.16;5073873;28;20417;-61
2022/07/31 08:00:38;;;;;;;0.40;0.40;;;;;;;31.16;66.17;95011.78;5073850;28;20426;-61
2022/07/31 08:03:07;;;;;;;0.80;0.80;;;;;;;30.92;70.97;95004.59;5074080;28;20453;-59
2022/07/31 08:05:55;;;;;;;1.77;0.50;;;;;;;30.80;66.61;95010.56;5073580;28;20489;-61
2022/07/31 08:08:23;;;;;;;0.67;0.67;;;;;;;30.65;68.21;95014.59;5073804;28;20872;-60
2022/07/31 08:10:53;;;;;;;1.00;1.00;;;;;;;30.53;63.46;95012.38;5073773;28;20436;-61
2022/07/31 08:13:21;;;;;;;0.60;0.53;;;;;;;30.86;65.96;95010.88;5074041;28;20474;-61
2022/07/31 08:15:50;;;;;;;0.93;0.77;;;;;;;30.74;65.04;95015.69;5074288;28;20422;-60
2022/07/31 08:18:18;;;;;;;0.57;0.40;;;;;;;31.85;61.79;94992.13;5073467;28;20501;-60
2022/07/31 08:20:46;;;;;;;0.40;0.30;;;;;;;32.13;57.99;95010.16;5073528;28;20428;-60
2022/07/31 08:23:16;;;;;;;0.50;0.50;;;;;;;31.87;64.09;94997.19;5073607;28;20433;-59
2022/07/31 08:25:45;;;;;;;0.43;0.43;;;;;;;31.14;58.77;95016.09;5073421;28;20471;-60
2022/07/31 08:28:15;;;;;;;0.50;0.50;;;;;;;31.30;57.91;95010.81;5073460;28;20431;-61
2022/07/31 08:30:51;;;;;;;0.50;0.50;;;;;;;30.91;64.74;95005.78;5072619;28;20439;-60
2022/07/31 08:33:19;;;;;;;6.17;0.77;;;;;;;31.08;56.55;95001.28;5072962;28;20460;-60
2022/07/31 08:35:48;;;;;;;0.50;0.30;;;;;;;31.74;53.08;94993.47;5073350;28;20426;-61
2022/07/31 08:38:18;;;;;;;1.47;0.70;;;;;;;32.13;54.29;95010.16;5073300;28;20423;-60
2022/07/31 08:40:46;;;;;;;0.77;0.77;;;;;;;32.16;47.03;95003.84;5073499;28;20539;-59
2022/07/31 08:43:16;;;;;;;0.40;0.37;;;;;;;32.16;52.59;94998.34;5073282;28;20519;-59
2022/07/31 08:46:06;;;;;;;0.40;0.40;;;;;;;32.74;48.51;94993.53;5072827;28;20485;-59
2022/07/31 08:48:40;;;;;;;0.47;0.47;;;;;;;33.04;46.92;94977.66;5073020;28;20455;-59
2022/07/31 08:51:12;;;;;;;0.70;0.50;;;;;;;33.56;45.82;94977.06;5072878;28;20484;-59
2022/07/31 08:53:43;;;;;;;0.40;0.40;;;;;;;34.16;41.28;94986.75;5073342;28;20458;-59
2022/07/31 08:56:12;;;;;;;0.40;0.30;;;;;;;34.68;42.82;94990.22;5073038;28;20414;-59
2022/07/31 08:58:43;;;;;;;0.93;0.90;;;;;;;33.88;47.57;94979.13;5072962;28;20465;-59
2022/07/31 09:01:12;;;;;;;1.07;0.97;;;;;;;33.25;44.44;94919.56;5072870;28;20860;-59
2022/07/31 09:03:40;;;;;;;0.50;0.50;;;;;;;33.47;47.22;94979.59;5072708;28;20431;-59
2022/07/31 09:06:09;;;;;;;0.57;0.57;;;;;;;33.37;46.19;94984.09;5072988;28;20500;-59
2022/07/31 09:08:38;;;;;;;0.60;0.40;;;;;;;33.58;45.83;94978.19;5073047;28;20928;-59
2022/07/31 09:11:08;;;;;;;0.83;0.80;;;;;;;34.15;45.91;94974.19;5072490;28;20511;-59
2022/07/31 09:13:36;;;;;;;0.73;0.73;;;;;;;32.94;43.03;94975.88;5072801;28;20885;-59
2022/07/31 09:16:06;;;;;;;1.70;0.60;;;;;;;33.48;43.84;94962.66;5072274;28;20829;-58
2022/07/31 09:18:35;;;;;;;0.60;0.60;;;;;;;33.88;40.69;94965.38;5072657;28;20519;-58
2022/07/31 09:21:06;;;;;;;0.60;0.60;;;;;;;34.22;40.24;94963.03;5072120;28;20459;-58
2022/07/31 09:23:45;;;;;;;0.60;0.50;;;;;;;34.55;38.42;94939.03;5072661;28;20453;-59
2022/07/31 09:26:14;;;;;;;0.40;0.30;;;;;;;34.62;38.73;94958.91;5072382;28;20555;-59
2022/07/31 09:28:43;;;;;;;0.60;0.60;;;;;;;34.07;40.03;94926.84;5072263;28;20976;-59
2022/07/31 09:31:13;;;;;;;0.50;0.50;;;;;;;35.03;39.93;94947.19;5072125;28;20718;-59
2022/07/31 09:33:43;;;;;;;0.63;0.63;;;;;;;35.30;38.41;94942.13;5072026;28;20471;-59
2022/07/31 09:36:13;;;;;;;0.50;0.50;;;;;;;36.09;42.28;94944.91;5072278;28;20512;-58
2022/07/31 09:38:43;;;;;;;0.80;0.63;;;;;;;35.20;37.68;94936.91;5072241;28;20428;-58
2022/07/31 09:41:13;;;;;;;3.70;0.50;;;;;;;34.72;38.78;94940.53;5072038;28;20186;-59
2022/07/31 09:44:03;;;;;;;0.40;0.30;;;;;;;34.80;39.26;94934.44;5071288;28;20435;-59
2022/07/31 09:46:43;;;;;;;0.60;0.60;;;;;;;35.02;36.86;94929.88;5071644;28;20256;-60
2022/07/31 09:49:11;;;;;;;0.60;0.60;;;;;;;35.39;36.49;94917.44;5071690;28;20454;-60
2022/07/31 09:51:40;;;;;;;0.90;0.40;;;;;;;35.55;37.88;94924.88;5072185;28;20421;-60
2022/07/31 09:54:20;;;;;;;1.03;1.03;;;;;;;35.18;44.78;94923.56;5071604;28;20643;-59
2022/07/31 09:56:49;;;;;;;0.50;0.40;;;;;;;35.24;42.78;94882.47;5071806;28;20313;-60
2022/07/31 09:59:18;;;;;;;0.40;0.30;;;;;;;36.08;41.50;94913.00;5071449;28;20221;-60
2022/07/31 10:01:49;;;;;;;0.40;0.40;;;;;;;35.86;38.45;94906.59;5071434;28;20187;-60
2022/07/31 10:04:18;;;;;;;0.40;0.40;;;;;;;35.45;39.10;94909.38;5071272;28;20277;-59
2022/07/31 10:06:48;;;;;;;0.60;0.60;;;;;;;34.97;39.71;94902.09;5071807;28;20293;-59
2022/07/31 10:09:19;;;;;;;1.23;1.13;;;;;;;35.37;36.94;94902.56;5071382;28;20228;-60
2022/07/31 10:11:50;;;;;;;0.60;0.47;;;;;;;35.76;36.90;94904.94;5071332;28;20197;-60
2022/07/31 10:14:24;;;;;;;0.70;0.70;;;;;;;36.26;36.00;94895.84;5071236;28;20182;-60
2022/07/31 10:16:57;;;;;;;0.47;0.40;;;;;;;35.97;35.69;94892.47;5071226;28;20280;-60
2022/07/31 10:19:31;;;;;;;0.40;0.30;;;;;;;36.65;34.51;94900.09;5071235;28;20233;-60
2022/07/31 10:22:03;;;;;;;0.50;0.40;;;;;;;35.87;36.07;94896.31;5071439;28;20259;-60
2022/07/31 10:24:33;;;;;;;0.50;0.40;;;;;;;36.11;35.14;94895.56;5071101;28;20269;-60
2022/07/31 10:27:01;;;;;;;0.40;0.40;;;;;;;36.64;33.66;94888.25;5071401;28;20238;-59
2022/07/31 10:29:39;;;;;;;0.50;0.30;;;;;;;37.45;32.53;94888.09;5071098;28;20186;-60
2022/07/31 10:32:09;;;;;;;0.63;0.57;;;;;;;38.35;31.37;94892.47;5071356;28;20190;-59
2022/07/31 10:34:38;;;;;;;2.80;0.57;;;;;;;37.56;30.89;94884.16;5071012;28;20190;-60
2022/07/31 10:37:13;;;;;;;0.50;0.40;;;;;;;35.83;33.68;94879.88;5070968;28;20226;-61
2022/07/31 10:39:49;;;;;;;0.50;0.43;;;;;;;35.79;32.83;94763.41;5070933;28;20182;-60
2022/07/31 10:42:29;;;;;;;0.50;0.40;;;;;;;36.67;32.30;94873.56;5070934;28;20221;-59
2022/07/31 10:45:05;;;;;;;0.50;0.50;;;;;;;37.40;31.84;94876.84;5070871;28;20273;-59
2022/07/31 10:47:35;;;;;;;0.40;0.35;;;;;;;37.44;33.89;94863.69;5070956;28;20210;-60
2022/07/31 10:50:05;;;;;;;0.40;0.30;;;;;;;36.55;34.42;94873.59;5071082;28;20189;-60
2022/07/31 10:52:35;;;;;;;0.95;0.50;;;;;;;36.92;31.28;94872.66;5070845;28;20197;-60
2022/07/31 10:55:15;;;;;;;0.60;0.60;;;;;;;36.05;34.81;94813.78;5069961;28;20587;-60
2022/07/31 10:57:44;;;;;;;0.45;0.45;;;;;;;35.89;36.56;94871.81;5070941;28;20277;-60
2022/07/31 11:00:27;;;;;;;0.40;0.40;;;;;;;35.23;33.29;94872.66;5071231;28;20402;-60
2022/07/31 11:02:58;;;;;;;0.50;0.50;;;;;;;35.39;36.26;94800.91;5069732;28;20642;-60
2022/07/31 11:05:27;;;;;;;0.47;0.40;;;;;;;36.37;35.29;94873.41;5070765;28;20643;-60
2022/07/31 11:08:02;;;;;;;0.40;0.40;;;;;;;35.98;37.60;94867.16;5070709;28;20210;-60
2022/07/31 11:10:32;;;;;;;0.53;0.40;;;;;;;36.37;36.08;94793.38;5070562;28;20272;-60
2022/07/31 11:13:03;;;;;;;0.57;0.55;;;;;;;37.43;33.03;94860.16;5070607;28;20182;-60
2022/07/31 11:15:32;;;;;;;0.45;0.43;;;;;;;37.29;36.40;94865.41;5070810;28;20188;-60
2022/07/31 11:18:13;;;;;;;0.88;0.88;;;;;;;37.55;31.85;94858.50;5070289;28;20779;-60
2022/07/31 11:21:00;;;;;;;0.95;0.95;;;;;;;37.74;31.68;94856.59;5070515;28;20202;-60
2022/07/31 11:23:44;;;;;;;0.70;0.70;;;;;;;37.18;32.34;94860.28;5070505;28;20660;-60
2022/07/31 11:26:30;;;;;;;0.70;0.68;;;;;;;36.84;32.28;94854.81;5070320;28;20198;-59
2022/07/31 11:29:08;;;;;;;0.63;0.63;;;;;;;35.99;33.21;94854.94;5070299;28;20191;-59
2022/07/31 11:32:00;;;;;;;0.60;0.60;;;;;;;35.87;32.73;94777.72;5070329;28;20192;-60
2022/07/31 11:34:30;;;;;;;0.70;0.70;;;;;;;37.05;31.58;94843.00;5070635;28;20214;-60
2022/07/31 11:36:58;;;;;;;0.40;0.40;;;;;;;37.50;31.79;94848.03;5070161;28;20717;-60
2022/07/31 11:39:27;;;;;;;0.40;0.38;;;;;;;37.46;30.09;94803.94;5070267;28;20269;-59
2022/07/31 11:42:04;;;;;;;0.65;0.65;;;;;;;37.61;30.80;94840.09;5070393;28;20182;-60
2022/07/31 11:44:35;;;;;;;0.30;0.30;;;;;;;38.64;30.05;94836.63;5070338;28;20244;-60
2022/07/31 11:47:03;;;;;;;0.40;0.40;;;;;;;38.44;31.73;94839.88;5070517;28;20564;-60